createdAt,value
2024-01-29T00:02:05.744Z,7.3624161073825505
2024-01-29T00:05:25.877Z,6.74496644295302
2024-01-29T00:08:46.469Z,6.97986577181208
2024-01-29T00:12:06.537Z,7.12751677852349
2024-01-29T00:15:28.270Z,6.939597315436242
2024-01-29T00:18:48.228Z,6.771812080536913
2024-01-29T00:22:08.505Z,7.214765100671141
2024-01-29T00:25:29.010Z,7.530201342281879
2024-01-29T00:28:48.808Z,7.328859060402684
2024-01-29T00:32:09.562Z,6.530201342281879
2024-01-29T00:35:29.755Z,6.02013422818792
2024-01-29T00:38:49.806Z,6.281879194630872
2024-01-29T00:42:21.953Z,6.845637583892618
2024-01-29T00:45:42.594Z,6.295302013422819
2024-01-29T00:51:26.264Z,6.5369127516778525
2024-01-29T00:54:46.734Z,6.751677852348993
2024-01-29T00:58:06.866Z,6.932885906040268
2024-01-29T01:01:28.670Z,6.919463087248322
2024-01-29T01:04:49.213Z,5.899328859060403
2024-01-29T01:08:08.489Z,6.973154362416107
2024-01-29T01:11:28.775Z,6.328859060402684
2024-01-29T01:14:48.730Z,6.604026845637584
2024-01-29T01:19:30.477Z,6.409395973154362
2024-01-29T01:22:52.073Z,6.046979865771812
2024-01-29T01:26:12.717Z,6.791946308724833
2024-01-29T01:29:32.707Z,6.308724832214765
2024-01-29T01:32:52.731Z,5.939597315436242
2024-01-29T01:36:13.406Z,6.342281879194631
2024-01-29T01:39:33.529Z,7.8120805369127515
2024-01-29T01:42:54.135Z,7.1610738255033555
2024-01-29T01:46:15.244Z,7.046979865771812
2024-01-29T01:49:36.418Z,7.74496644295302
2024-01-29T01:52:56.716Z,8.738255033557047
2024-01-29T01:56:17.992Z,7.02013422818792
2024-01-29T01:59:38.272Z,6.657718120805369
2024-01-29T02:02:58.458Z,6.8120805369127515
2024-01-29T02:06:18.521Z,6.845637583892618
2024-01-29T02:09:38.688Z,6.516778523489933
2024-01-29T02:12:58.232Z,6.073825503355705
2024-01-29T02:16:18.685Z,7.785234899328859
2024-01-29T02:21:49.314Z,8.154362416107382
2024-01-29T02:25:09.348Z,7.530201342281879
2024-01-29T02:28:31.101Z,7.651006711409396
2024-01-29T02:31:51.064Z,7.342281879194631
2024-01-29T02:35:11.934Z,7.510067114093959
2024-01-29T02:39:36.741Z,7.899328859060403
2024-01-29T02:42:57.191Z,7.751677852348993
2024-01-29T02:46:17.923Z,7.0134228187919465
2024-01-29T02:54:38.878Z,7.302013422818792
2024-01-29T02:57:59.833Z,6.328859060402684
2024-01-29T03:01:20.860Z,6.946308724832215
2024-01-29T03:04:40.737Z,6.456375838926174
2024-01-29T03:08:00.642Z,6.395973154362416
2024-01-29T03:11:21.726Z,6.691275167785235
2024-01-29T03:14:42.184Z,6.342281879194631
2024-01-29T03:18:02.972Z,5.510067114093959
2024-01-29T03:21:24.522Z,5.583892617449664
2024-01-29T03:24:45.677Z,4.570469798657718
2024-01-29T03:28:05.389Z,5.261744966442953
2024-01-29T03:31:25.572Z,5.563758389261745
2024-01-29T03:34:45.942Z,5.577181208053691
2024-01-29T03:38:06.743Z,5.577181208053691
2024-01-29T03:41:27.394Z,5.2885906040268456
2024-01-29T03:44:48.422Z,5.442953020134228
2024-01-29T03:49:27.161Z,5.308724832214765
2024-01-29T03:52:48.170Z,5.758389261744966
2024-01-29T03:56:08.998Z,5.147651006711409
2024-01-29T04:00:17.807Z,5.778523489932886
2024-01-29T04:03:38.187Z,5.684563758389261
2024-01-29T04:06:59.916Z,5.6644295302013425
2024-01-29T04:10:20.544Z,5.912751677852349
2024-01-29T04:13:41.431Z,5.295302013422819
2024-01-29T04:17:02.116Z,5.429530201342282
2024-01-29T04:20:22.793Z,5.248322147651007
2024-01-29T04:23:42.238Z,5.093959731543624
2024-01-29T04:27:02.819Z,5.369127516778524
2024-01-29T04:30:23.957Z,5.785234899328859
2024-01-29T04:33:44.489Z,5.791946308724833
2024-01-29T04:37:05.531Z,6.302013422818792
2024-01-29T04:40:27.048Z,6.322147651006712
2024-01-29T04:43:48.468Z,6.033557046979865
2024-01-29T04:47:08.797Z,5.758389261744966
2024-01-29T04:50:30.109Z,5.375838926174497
2024-01-29T04:53:50.692Z,5.6375838926174495
2024-01-29T04:57:11.217Z,5.959731543624161
2024-01-29T05:00:31.749Z,6.429530201342282
2024-01-29T05:03:51.769Z,6.174496644295302
2024-01-29T05:07:12.817Z,5.818791946308725
2024-01-29T05:10:33.464Z,6.315436241610739
2024-01-29T05:13:53.935Z,6.302013422818792
2024-01-29T05:19:40.678Z,4.959731543624161
2024-01-29T05:23:01.005Z,5.395973154362416
2024-01-29T05:26:21.682Z,4.87248322147651
2024-01-29T05:29:41.951Z,5.610738255033557
2024-01-29T05:33:31.609Z,5.852348993288591
2024-01-29T05:36:51.494Z,5.120805369127517
2024-01-29T05:40:12.333Z,5.12751677852349
2024-01-29T05:43:33.592Z,5.557046979865772
2024-01-29T05:46:53.911Z,5.201342281879195
2024-01-29T05:50:15.382Z,5.295302013422819
2024-01-29T05:54:03.269Z,5.026845637583893
2024-01-29T05:57:24.540Z,5.25503355704698
2024-01-29T06:00:45.229Z,5.778523489932886
2024-01-29T06:04:05.828Z,5.409395973154362
2024-01-29T06:07:27.552Z,5.409395973154362
2024-01-29T06:10:49.410Z,4.946308724832215
2024-01-29T06:14:10.211Z,5.503355704697986
2024-01-29T06:19:28.746Z,5.597315436241611
2024-01-29T06:22:49.552Z,5.3624161073825505
2024-01-29T06:26:10.216Z,5.154362416107382
2024-01-29T06:30:59.929Z,5.530201342281879
2024-01-29T06:34:20.658Z,5.375838926174497
2024-01-29T06:39:40.865Z,5.268456375838926
2024-01-29T06:45:27.446Z,5.476510067114094
2024-01-29T06:48:48.635Z,5.577181208053691
2024-01-29T06:52:12.527Z,5.865771812080537
2024-01-29T06:55:36.926Z,5.718120805369128
2024-01-29T06:58:57.692Z,5.442953020134228
2024-01-29T07:02:18.885Z,4.9865771812080535
2024-01-29T07:05:39.339Z,5.966442953020135
2024-01-29T07:09:00.464Z,6.422818791946309
2024-01-29T07:12:21.937Z,6.825503355704698
2024-01-29T07:15:49.175Z,6.738255033557047
2024-01-29T07:20:46.357Z,5.885906040268456
2024-01-29T07:24:06.936Z,6.322147651006712
2024-01-29T07:27:27.384Z,6.543624161073826
2024-01-29T07:30:47.892Z,6.328859060402684
2024-01-29T07:34:08.635Z,6.295302013422819
2024-01-29T07:37:29.496Z,7.120805369127517
2024-01-29T07:40:49.237Z,7.946308724832215
2024-01-29T07:44:51.957Z,6.442953020134228
2024-01-29T07:50:22.472Z,6.543624161073826
2024-01-29T07:53:42.752Z,6.1610738255033555
2024-01-29T07:57:27.481Z,6.550335570469799
2024-01-29T08:00:47.884Z,6.4630872483221475
2024-01-29T08:04:08.243Z,6.677852348993288
2024-01-29T08:07:28.983Z,5.959731543624161
2024-01-29T08:10:49.868Z,6.201342281879195
2024-01-29T08:14:09.819Z,6.322147651006712
2024-01-29T08:19:18.030Z,6.167785234899329
2024-01-29T08:22:40.619Z,6.355704697986577
2024-01-29T08:26:00.888Z,6.194630872483222
2024-01-29T08:29:21.749Z,6.436241610738255
2024-01-29T08:32:41.653Z,6.375838926174497
2024-01-29T08:38:20.414Z,6.87248322147651
2024-01-29T08:41:40.725Z,6.87248322147651
2024-01-29T08:45:01.092Z,6.738255033557047
2024-01-29T08:48:22.068Z,6.805369127516778
2024-01-29T08:51:42.277Z,6.993288590604027
2024-01-29T08:55:02.498Z,6.751677852348993
2024-01-29T08:58:25.412Z,6.899328859060403
2024-01-29T09:04:14.393Z,7.577181208053691
2024-01-29T09:07:34.788Z,6.865771812080537
2024-01-29T09:12:52.789Z,8.268456375838927
2024-01-29T09:17:43.595Z,8.275167785234899
2024-01-29T09:21:03.533Z,8.248322147651006
2024-01-29T09:24:23.705Z,8.369127516778523
2024-01-29T09:27:44.696Z,7.919463087248322
2024-01-29T09:31:05.093Z,7.597315436241611
2024-01-29T09:34:26.581Z,6.731543624161074
2024-01-29T09:47:05.652Z,7.885906040268456
2024-01-29T09:50:26.259Z,7.946308724832215
2024-01-29T09:53:46.469Z,7.865771812080537
2024-01-29T09:57:06.982Z,7.12751677852349
2024-01-29T10:00:29.908Z,8.51006711409396
2024-01-29T10:03:51.376Z,7.906040268456376
2024-01-29T10:07:11.677Z,8.234899328859061
2024-01-29T10:10:32.732Z,8.315436241610739
2024-01-29T10:13:53.006Z,7.684563758389261
2024-01-29T10:17:13.846Z,7.382550335570469
2024-01-29T10:23:08.692Z,7.174496644295302
2024-01-29T10:26:29.864Z,7.697986577181208
2024-01-29T10:29:50.079Z,7.8389261744966445
2024-01-29T10:33:10.855Z,7.852348993288591
2024-01-29T10:38:00.109Z,7.134228187919463
2024-01-29T10:41:20.903Z,7.8120805369127515
2024-01-29T10:44:41.070Z,7.697986577181208
2024-01-29T10:48:01.266Z,8.228187919463087
2024-01-29T10:51:21.274Z,8.013422818791947
2024-01-29T10:54:41.883Z,9.120805369127517
2024-01-29T10:58:03.532Z,8.21476510067114
2024-01-29T11:02:03.807Z,9.10738255033557
2024-01-29T11:05:25.767Z,9.060402684563758
2024-01-29T11:08:46.511Z,8.630872483221477
2024-01-29T11:12:06.802Z,8.550335570469798
2024-01-29T11:15:27.600Z,7.939597315436242
2024-01-29T11:19:03.550Z,8.174496644295303
2024-01-29T11:24:39.020Z,8.563758389261745
2024-01-29T11:27:59.083Z,8.818791946308725
2024-01-29T11:35:54.861Z,9.422818791946309
2024-01-29T11:39:14.644Z,9.483221476510067
2024-01-29T11:42:35.143Z,10.476510067114093
2024-01-29T11:45:54.732Z,10.879194630872483
2024-01-29T11:49:14.920Z,11.241610738255034
2024-01-29T11:52:35.380Z,11.053691275167786
2024-01-29T11:55:55.665Z,11.033557046979865
2024-01-29T11:59:46.698Z,10.89261744966443
2024-01-29T12:03:07.562Z,11.523489932885907
2024-01-29T12:06:28.691Z,11.738255033557047
2024-01-29T12:09:48.148Z,11.604026845637584
2024-01-29T12:13:08.693Z,11.463087248322148
2024-01-29T12:17:06.415Z,11.389261744966444
2024-01-29T12:20:26.394Z,12.080536912751677
2024-01-29T12:23:52.358Z,11.986577181208053
2024-01-29T12:27:13.127Z,12.268456375838927
2024-01-29T12:30:33.080Z,11.53020134228188
2024-01-29T12:33:53.599Z,12.456375838926174
2024-01-29T12:37:14.159Z,13.919463087248323
2024-01-29T12:40:34.141Z,12.167785234899329
2024-01-29T12:43:54.020Z,12.167785234899329
2024-01-29T12:47:14.735Z,12.36241610738255
2024-01-29T12:50:34.618Z,12.436241610738255
2024-01-29T12:53:55.232Z,12.805369127516778
2024-01-29T13:00:36.413Z,12.422818791946309
2024-01-29T13:03:56.438Z,13.422818791946309
2024-01-29T13:07:18.441Z,12.46979865771812
2024-01-29T13:10:38.709Z,13.026845637583893
2024-01-29T13:13:59.831Z,12.449664429530202
2024-01-29T13:17:20.242Z,13.161073825503356
2024-01-29T13:21:24.415Z,12.630872483221477
2024-01-29T13:24:45.008Z,13.315436241610739
2024-01-29T13:30:03.463Z,13.40268456375839
2024-01-29T13:33:24.568Z,13.651006711409396
2024-01-29T13:36:45.242Z,12.449664429530202
2024-01-29T13:40:05.637Z,12.973154362416107
2024-01-29T13:43:26.525Z,12.657718120805368
2024-01-29T13:46:47.131Z,12.838926174496644
2024-01-29T13:50:07.500Z,12.912751677852349
2024-01-29T13:53:28.601Z,14.140939597315436
2024-01-29T13:56:48.893Z,14.355704697986576
2024-01-29T14:00:09.282Z,13.48993288590604
2024-01-29T14:03:30.358Z,13.174496644295303
2024-01-29T14:06:50.668Z,13.355704697986576
2024-01-29T14:10:10.924Z,15.114093959731544
2024-01-29T14:13:31.564Z,14.449664429530202
2024-01-29T14:16:51.892Z,14.201342281879194
2024-01-29T14:20:12.766Z,13.818791946308725
2024-01-29T14:23:33.741Z,14.993288590604028
2024-01-29T14:26:54.017Z,15.409395973154362
2024-01-29T14:30:14.765Z,15.771812080536913
2024-01-29T14:42:13.414Z,16.181208053691275
2024-01-29T14:45:34.340Z,16.06040268456376
2024-01-29T14:48:54.458Z,16.268456375838927
2024-01-29T14:52:14.965Z,17.013422818791945
2024-01-29T14:55:36.476Z,16.201342281879196
2024-01-29T14:58:56.964Z,16.906040268456376
2024-01-29T15:02:17.133Z,17.449664429530202
2024-01-29T15:05:38.532Z,17.7248322147651
2024-01-29T15:08:58.584Z,17.85234899328859
2024-01-29T15:15:06.685Z,18.073825503355703
2024-01-29T15:18:26.942Z,17.174496644295303
2024-01-29T15:21:47.150Z,17.154362416107382
2024-01-29T15:25:07.085Z,17.63758389261745
2024-01-29T15:28:27.912Z,17.28187919463087
2024-01-29T15:31:48.920Z,18.308724832214764
2024-01-29T15:35:09.371Z,18.416107382550337
2024-01-29T15:38:30.290Z,18.711409395973153
2024-01-29T15:46:42.022Z,17.369127516778523
2024-01-29T15:50:02.627Z,19.44295302013423
2024-01-29T15:53:23.571Z,18.42281879194631
2024-01-29T15:56:43.934Z,18.973154362416107
2024-01-29T16:02:29.129Z,24.221476510067113
2024-01-29T16:05:49.373Z,22.20805369127517
2024-01-29T16:09:59.320Z,21.78523489932886
2024-01-29T16:13:20.168Z,21.026845637583893
2024-01-29T16:16:41.267Z,21.42281879194631
2024-01-29T16:20:01.555Z,20.22818791946309
2024-01-29T16:27:59.061Z,21.22818791946309
2024-01-29T16:32:21.617Z,25.85234899328859
2024-01-29T16:36:46.626Z,27.65771812080537
2024-01-29T16:40:24.638Z,25.456375838926174
2024-01-29T16:43:45.697Z,26.389261744966444
2024-01-29T16:47:05.978Z,24.42281879194631
2024-01-29T16:50:26.651Z,25.308724832214764
2024-01-29T16:53:47.195Z,26.288590604026847
2024-01-29T16:57:07.780Z,24.120805369127517
2024-01-29T17:00:28.762Z,22.16778523489933
2024-01-29T17:03:48.912Z,22.16778523489933
2024-01-29T17:09:30.645Z,23.583892617449663
2024-01-29T17:15:10.477Z,22.436241610738254
2024-01-29T17:20:48.968Z,22.42281879194631
2024-01-29T17:24:22.964Z,23.20805369127517
2024-01-29T17:27:44.147Z,23.181208053691275
2024-01-29T17:31:04.152Z,23.38255033557047
2024-01-29T17:34:25.314Z,22.879194630872483
2024-01-29T17:37:46.208Z,22.697986577181208
2024-01-29T17:41:06.199Z,23.61744966442953
2024-01-29T17:44:26.806Z,23.476510067114095
2024-01-29T17:47:46.625Z,23.375838926174495
2024-01-29T17:51:06.657Z,23.28187919463087
2024-01-29T17:54:27.749Z,22.959731543624162
2024-01-29T17:57:48.088Z,22.87248322147651
2024-01-29T18:01:09.180Z,22.885906040268456
2024-01-29T18:04:30.167Z,22.91275167785235
2024-01-29T18:07:51.113Z,21.83221476510067
2024-01-29T18:11:11.782Z,21.879194630872483
2024-01-29T18:14:33.168Z,22.22818791946309
2024-01-29T18:17:53.667Z,23.06711409395973
2024-01-29T18:22:59.085Z,22.38255033557047
2024-01-29T18:26:20.181Z,23.288590604026847
2024-01-29T18:29:40.628Z,23.221476510067113
2024-01-29T18:33:01.399Z,24.040268456375838
2024-01-29T18:36:21.896Z,24.590604026845636
2024-01-29T18:40:06.108Z,24.040268456375838
2024-01-29T18:43:27.112Z,23.456375838926174
2024-01-29T18:46:48.000Z,24.053691275167786
2024-01-29T18:50:08.988Z,24.677852348993287
2024-01-29T18:54:22.043Z,24.59731543624161
2024-01-29T18:59:18.390Z,26.248322147651006
2024-01-29T19:05:43.007Z,27.530201342281877
2024-01-29T19:09:03.351Z,27.107382550335572
2024-01-29T19:12:24.316Z,30.697986577181208
2024-01-29T19:15:44.997Z,30.91946308724832
2024-01-29T19:19:05.417Z,27.523489932885905
2024-01-29T19:22:26.998Z,27.08053691275168
2024-01-29T19:25:46.920Z,28.288590604026847
2024-01-29T19:29:06.899Z,28.91275167785235
2024-01-29T19:32:27.748Z,28.449664429530202
2024-01-29T19:35:47.528Z,27.469798657718123
2024-01-29T19:39:07.598Z,27.691275167785236
2024-01-29T19:45:48.360Z,27.154362416107382
2024-01-29T19:49:08.294Z,29.040268456375838
2024-01-29T19:52:30.203Z,29.2751677852349
2024-01-29T19:56:10.416Z,30.006711409395972
2024-01-29T19:59:30.840Z,29.06040268456376
2024-01-29T20:02:50.849Z,29.543624161073826
2024-01-29T20:06:10.894Z,29.302013422818792
2024-01-29T20:09:32.007Z,29.77181208053691
2024-01-29T20:12:52.049Z,29.731543624161073
2024-01-29T20:16:12.773Z,28.536912751677853
2024-01-29T20:19:33.620Z,29.389261744966444
2024-01-29T20:22:54.525Z,30.026845637583893
2024-01-29T20:26:15.973Z,30.06040268456376
2024-01-29T20:29:36.573Z,29.583892617449663
2024-01-29T20:34:36.506Z,30.738255033557046
2024-01-29T20:37:57.195Z,31.845637583892618
2024-01-29T20:42:21.402Z,31.899328859060404
2024-01-29T20:46:57.804Z,33.30201342281879
2024-01-29T20:50:18.516Z,35.10738255033557
2024-01-29T20:53:39.670Z,34.10738255033557
2024-01-29T21:00:06.810Z,34.16778523489933
2024-01-29T21:03:27.144Z,33.45637583892618
2024-01-29T21:06:46.890Z,32.966442953020135
2024-01-29T21:13:23.232Z,33.348993288590606
2024-01-29T21:16:44.047Z,33.52348993288591
2024-01-29T21:20:05.159Z,32.81879194630873
2024-01-29T21:23:25.632Z,34.61073825503356
2024-01-29T21:26:46.512Z,33.06711409395973
2024-01-29T21:30:07.068Z,34.54362416107382
2024-01-29T21:33:27.953Z,33.288590604026844
2024-01-29T21:36:49.053Z,33.308724832214764
2024-01-29T21:40:09.550Z,34.261744966442954
2024-01-29T21:44:09.774Z,34.79194630872483
2024-01-29T21:47:30.715Z,35.46308724832215
2024-01-29T21:50:51.853Z,34.84563758389262
2024-01-29T21:54:12.946Z,35.02013422818792
2024-01-29T21:57:33.611Z,34.30201342281879
2024-01-29T22:00:55.408Z,34.77181208053691
2024-01-29T22:04:17.070Z,34.57046979865772
2024-01-29T22:07:37.411Z,35.92617449664429
2024-01-29T22:10:57.818Z,35.328859060402685
2024-01-29T22:14:18.492Z,36.06711409395973
2024-01-29T22:18:26.668Z,36.624161073825505
2024-01-29T22:21:46.931Z,36.45637583892618
2024-01-29T22:25:07.236Z,34.02684563758389
2024-01-29T22:28:28.026Z,35.24832214765101
2024-01-29T22:31:48.567Z,35.11409395973154
2024-01-29T22:35:08.997Z,34.95302013422819
2024-01-29T22:38:29.739Z,37.40268456375839
2024-01-29T22:41:49.983Z,36.59060402684564
2024-01-29T22:45:10.671Z,37.10738255033557
2024-01-29T22:48:31.126Z,35.56375838926174
2024-01-29T22:51:52.093Z,36.08724832214765
2024-01-29T22:55:12.858Z,34.43624161073826
2024-01-29T22:58:33.580Z,35.97986577181208
2024-01-29T23:01:54.111Z,36.48993288590604
2024-01-29T23:05:14.700Z,37.422818791946305
2024-01-29T23:09:10.606Z,36.758389261744966
2024-01-29T23:12:30.864Z,34.785234899328856
2024-01-29T23:15:51.458Z,34.90604026845637
2024-01-29T23:19:22.901Z,34.711409395973156
2024-01-29T23:22:43.237Z,34.557046979865774
2024-01-29T23:27:08.483Z,33.77852348993289
2024-01-29T23:31:51.122Z,34.79194630872483
2024-01-29T23:35:11.207Z,34.48993288590604
2024-01-29T23:44:14.044Z,33.48322147651007
2024-01-29T23:47:34.613Z,32.966442953020135
2024-01-29T23:50:54.800Z,33.48993288590604
2024-01-29T23:54:16.328Z,33.395973154362416
2024-01-29T23:57:36.552Z,32.80536912751678
